METAR Data
IDs: Format: Raw Decoded Include TAF

Data at: 2156 UTC 01 Feb 2023

KWVI 012153Z AUTO 22007KT 10SM CLR 15/01 A3018 RMK AO2 SLP220 T01500011
KWVI 012053Z AUTO 22006KT 10SM CLR 16/M01 A3018 RMK AO2 SLP220 T01611006 58009
KWVI 011953Z AUTO 00000KT 10SM CLR 14/M03 A3019 RMK AO2 SLP225 T01441028
KWVI 011853Z AUTO 10003KT 10SM CLR 12/M02 A3021 RMK AO2 SLP229 T01171017
KWVI 011753Z AUTO 11006KT 10SM CLR 08/M01 A3021 RMK AO2 SLP230 T00831006 10083 21011 50005
KWVI 011653Z AUTO 00000KT 10SM CLR 05/M01 A3021 RMK AO2 SLP230 T00501011
KWVI 011553Z AUTO 00000KT 10SM CLR 02/M02 A3020 RMK AO2 SLP227 T00171017
KWVI 011453Z AUTO 00000KT 10SM CLR M01/M03 A3019 RMK AO2 SLP224 T10061028 53005
KWVI 011353Z AUTO 00000KT 10SM CLR 00/M03 A3019 RMK AO2 SLP222 T00001028
KWVI 011253Z AUTO 00000KT 10SM CLR 00/M02 A3018 RMK AO2 SLP220 T00001022
KWVI 011153Z AUTO 00000KT 10SM CLR 02/M03 A3018 RMK AO2 SLP219 T00221028 10044 21006 58003
KWVI 011053Z AUTO 00000KT 10SM CLR 00/M02 A3018 RMK AO2 SLP222 T00001022
KWVI 010953Z AUTO 00000KT 10SM CLR 01/M02 A3019 RMK AO2 SLP223 T00061022
KWVI 010853Z AUTO 00000KT 10SM CLR 02/M02 A3019 RMK AO2 SLP223 T00171017 58002
KWVI 010753Z AUTO 32004KT 10SM CLR 03/M02 A3019 RMK AO2 SLP225 T00331017 401501022
KWVI 010653Z AUTO 02003KT 10SM CLR 03/M02 A3019 RMK AO2 SLP225 T00331017
KWVI 010553Z AUTO 34004KT 10SM CLR 04/M01 A3019 RMK AO2 SLP225 T00441011 10144 20033 51009
KWVI 010453Z AUTO 34003KT 10SM CLR 05/M01 A3019 RMK AO2 SLP223 T00501006
KWVI 010353Z AUTO 35003KT 10SM CLR 06/00 A3017 RMK AO2 SLP218 T00560000
KWVI 010253Z AUTO 00000KT 10SM CLR 07/00 A3017 RMK AO2 SLP215 T00670000 53011
KWVI 010153Z AUTO 33003KT 10SM CLR 10/M01 A3015 RMK AO2 SLP210 T01001006
KWVI 010053Z AUTO 27005KT 10SM CLR 12/M01 A3014 RMK AO2 SLP207 T01221006
KWVI 312353Z AUTO 27004KT 10SM CLR 14/M03 A3013 RMK AO2 SLP204 T01441028 10150 20067 56013
KWVI 312253Z AUTO 16003KT 10SM CLR 15/M06 A3013 RMK AO2 SLP205 T01501056
No TAF found for KWVI

KSNS 012153Z 30011KT 10SM CLR 16/06 A3017 RMK AO2 SLP224 T01560061
KSNS 012053Z 14012KT 10SM CLR 16/02 A3017 RMK AO2 SLP224 T01610022 58010
KSNS 011953Z 14012KT 10SM CLR 13/04 A3018 RMK AO2 SLP228 T01330039
KSNS 011853Z 13016KT 10SM CLR 11/02 A3019 RMK AO2 SLP232 T01060022
KSNS 011753Z 13016KT 10SM CLR 08/02 A3020 RMK AO2 SLP235 T00830017 10083 20044 51004
KSNS 011653Z 12015KT 10SM CLR 07/01 A3020 RMK AO2 SLP235 T00670006
KSNS 011553Z 12014KT 10SM CLR 05/01 A3019 RMK AO2 SLP232 T00500006
KSNS 011453Z 13011KT 10SM CLR 04/00 A3018 RMK AO2 SLP231 T00440000 53005
KSNS 011353Z AUTO 13013KT 10SM CLR 05/00 A3017 RMK AO2 SLP227 T00500000
KSNS 011253Z AUTO 12010KT 10SM CLR 05/00 A3017 RMK AO2 SLP225 T00500000
KSNS 011153Z AUTO 12011KT 10SM CLR 05/00 A3017 RMK AO2 SLP225 T00500000 10056 20033 56005
KSNS 011053Z AUTO 13010KT 10SM CLR 06/01 A3018 RMK AO2 SLP227 T00560006
KSNS 010953Z AUTO 14007KT 10SM CLR 04/01 A3017 RMK AO2 SLP226 T00440006
KSNS 010853Z AUTO 12005KT 10SM CLR 03/01 A3018 RMK AO2 SLP231 T00330011 58003
KSNS 010753Z AUTO 15005KT 10SM CLR 04/01 A3019 RMK AO2 SLP234 T00390011 401610006
KSNS 010653Z AUTO 14003KT 10SM CLR 05/02 A3019 RMK AO2 SLP234 T00500017
KSNS 010553Z AUTO 12004KT 10SM CLR 06/02 A3019 RMK AO2 SLP234 T00560022 10161 20050 52009
KSNS 010453Z AUTO 28003KT 10SM CLR 08/02 A3018 RMK AO2 SLP231 T00780017
KSNS 010353Z AUTO 27003KT 10SM CLR 08/02 A3017 RMK AO2 SLP226 T00830022
KSNS 010253Z 00000KT 10SM CLR 10/03 A3016 RMK AO2 SLP224 T01000028 53013
KSNS 010153Z 30003KT 10SM CLR 11/02 A3015 RMK AO2 SLP218 T01110017
KSNS 010053Z 30006KT 10SM CLR 14/01 A3013 RMK AO2 SLP214 T01440011
KSNS 312353Z 00000KT 10SM CLR 16/M02 A3013 RMK AO2 SLP210 T01611017 10161 20067 55012
KSNS 312253Z 00000KT 10SM CLR 16/M02 A3012 RMK AO2 SLP210 T01561017

KSNS 011727Z 0118/0218 12015KT P6SM SKC
  FM012200 29009KT P6SM SCT250
  FM021000 VRB06KT P6SM FEW150


KMRY 012054Z 27011KT 10SM CLR 16/01 A3017 RMK AO2 SLP229 T01560011 58007
KMRY 011954Z 34006KT 10SM CLR 13/02 A3019 RMK AO2 SLP236 T01280022
KMRY 011854Z 32005KT 10SM CLR 12/00 A3019 RMK AO2 SLP238 T01220000
KMRY 011754Z 00000KT 10SM CLR 11/M01 A3019 RMK AO2 SLP235 T01111011 10111 20033 51008
KMRY 011654Z 00000KT 10SM CLR 09/M02 A3019 RMK AO2 SLP235 T00941017
KMRY 011554Z 17005KT 10SM CLR 05/M04 A3018 RMK AO2 SLP234 T00501039
KMRY 011454Z 12005KT 10SM CLR 05/M04 A3016 RMK AO2 SLP228 T00501039 53003
KMRY 011354Z AUTO 11007KT 10SM CLR 05/M03 A3016 RMK AO2 SLP225 T00501033
KMRY 011254Z AUTO 11006KT 10SM CLR 03/M02 A3015 RMK AO2 SLP224 T00331022
KMRY 011154Z AUTO 14004KT 10SM CLR 04/M02 A3015 RMK AO2 SLP225 T00391022 10050 20028 56006
KMRY 011054Z AUTO 12004KT 10SM CLR 03/M02 A3016 RMK AO2 SLP227 T00331017
KMRY 010954Z AUTO 12005KT 10SM CLR 04/M01 A3016 RMK AO2 SLP227 T00441011
KMRY 010854Z AUTO 13003KT 10SM CLR 03/M01 A3017 RMK AO2 SLP231 T00331011 58005
KMRY 010754Z AUTO 14004KT 10SM CLR 04/00 A3018 RMK AO2 SLP234 T00390000 401500017
KMRY 010654Z AUTO 12004KT 10SM CLR 04/01 A3018 RMK AO2 SLP234 T00440006
KMRY 010554Z AUTO 12004KT 10SM CLR 04/01 A3019 RMK AO2 SLP235 T00440011 10128 20044 50006
KMRY 010454Z AUTO 12004KT 10SM CLR 05/01 A3019 RMK AO2 SLP236 T00500011
KMRY 010354Z 13003KT 10SM CLR 06/01 A3017 RMK AO2 SLP231 T00560011
KMRY 010254Z 13003KT 10SM CLR 07/02 A3017 RMK AO2 SLP230 T00670017 53011
KMRY 010154Z 00000KT 10SM CLR 10/02 A3015 RMK AO2 SLP224 T01000022
KMRY 010054Z 35004KT 10SM CLR 12/02 A3015 RMK AO2 SLP221 T01170017
KMRY 312354Z 33005KT 10SM CLR 13/00 A3014 RMK AO2 SLP218 T01280000 10150 20100 55008
KMRY 312254Z 31006KT 10SM CLR 14/M02 A3013 RMK AO2 SLP217 T01441017

KMRY 011727Z 0118/0218 VRB04KT P6SM SKC
  FM012000 24010KT P6SM SCT250
  FM020400 VRB06KT P6SM SCT100


KSJC 012153Z 29004KT 10SM FEW180 BKN250 15/M04 A3017 RMK AO2 SLP216 T01501044
KSJC 012053Z 33007KT 10SM SCT180 BKN250 14/M02 A3018 RMK AO2 SLP220 T01391022 58010
KSJC 011953Z 32004KT 10SM BKN100 OVC160 13/M02 A3020 RMK AO2 SLP225 T01331022
KSJC 011853Z 00000KT 10SM BKN100 BKN160 12/M04 A3021 RMK AO2 SLP230 T01171039
KSJC 011753Z 00000KT 10SM BKN100 BKN160 09/M03 A3021 RMK AO2 SLP230 T00891028 10089 20006 50005
KSJC 011653Z 17004KT 10SM BKN100 BKN160 07/M01 A3022 RMK AO2 SLP232 T00671011
KSJC 011553Z 14003KT 10SM SCT100 BKN160 03/M03 A3020 RMK AO2 SLP227 T00281033
KSJC 011453Z 18003KT 10SM SCT100 SCT150 03/M04 A3020 RMK AO2 SLP226 T00281044 53006
KSJC 011353Z 15004KT 10SM CLR 02/M04 A3019 RMK AO2 SLP222 T00221039
KSJC 011253Z AUTO 14003KT 10SM CLR 02/M05 A3018 RMK AO2 SLP220 T00171050
KSJC 011153Z AUTO 00000KT 10SM CLR 04/M04 A3018 RMK AO2 SLP220 T00391044 10072 20022 58001
KSJC 011053Z AUTO 13003KT 10SM CLR 03/M04 A3019 RMK AO2 SLP221 T00331044
KSJC 010953Z AUTO 15004KT 10SM CLR 03/M04 A3019 RMK AO2 SLP222 T00331044
KSJC 010853Z AUTO 14003KT 10SM CLR 04/M04 A3018 RMK AO2 SLP221 T00441039 58002
KSJC 010753Z 14003KT 10SM CLR 06/M04 A3019 RMK AO2 SLP223 T00561039 401560011
KSJC 010653Z 14004KT 10SM FEW200 06/M04 A3020 RMK AO2 SLP225 T00611039
KSJC 010553Z 14003KT 10SM SCT200 07/M05 A3019 RMK AO2 SLP222 T00721050 10150 20067 51009
KSJC 010453Z 18004KT 10SM FEW150 08/M05 A3019 RMK AO2 SLP222 T00831050
KSJC 010353Z 25004KT 10SM CLR 10/M05 A3017 RMK AO2 SLP216 T01001050
KSJC 010253Z 26003KT 10SM FEW090 11/M04 A3016 RMK AO2 SLP213 T01061039 53010
KSJC 010153Z 31004KT 10SM FEW090 11/M06 A3015 RMK AO2 SLP208 T01111061
KSJC 010053Z 32005KT 10SM FEW100 14/M05 A3014 RMK AO2 SLP205 T01391050
KSJC 312353Z 32006KT 10SM FEW100 15/M07 A3013 RMK AO2 SLP204 T01501072 10156 20089 56012
KSJC 312253Z 34007KT 10SM FEW100 16/M07 A3014 RMK AO2 SLP205 T01561067

KSJC 011727Z 0118/0218 VRB04KT P6SM BKN100
  FM011900 33008KT P6SM SCT150
  FM012100 VRB04KT P6SM SCT100


KSFO 012056Z 02006KT 10SM BKN200 12/04 A3019 RMK AO2 SLP224 T01220044 58012
KSFO 011956Z 02005KT 10SM BKN200 11/02 A3021 RMK AO2 SLP231 T01110022
KSFO 011856Z 02005KT 10SM BKN180 10/03 A3022 RMK AO2 SLP234 T01000028
KSFO 011756Z 08003KT 10SM BKN180 09/02 A3023 RMK AO2 SLP235 T00940017 10094 20039 51008
KSFO 011656Z 00000KT 10SM BKN180 08/03 A3022 RMK AO2 SLP233 T00780028
KSFO 011556Z 19004KT 10SM BKN180 06/03 A3021 RMK AO2 SLP230 T00560033
KSFO 011456Z 00000KT 10SM SCT180 06/02 A3020 RMK AO2 SLP227 T00560017 53007
KSFO 011356Z 21004KT 10SM FEW150 06/02 A3019 RMK AO2 SLP223 T00560017
KSFO 011256Z 00000KT 10SM CLR 04/00 A3018 RMK AO2 SLP220 T00440000
KSFO 011156Z 00000KT 10SM CLR 04/M01 A3018 RMK AO2 SLP220 T00441011 10089 20044 58001
KSFO 011056Z 00000KT 10SM CLR 06/M02 A3019 RMK AO2 SLP221 T00561017
KSFO 010956Z 00000KT 10SM CLR 06/M01 A3018 RMK AO2 SLP220 T00611011
KSFO 010856Z 20003KT 10SM CLR 07/M01 A3018 RMK AO2 SLP220 T00671011 58003
KSFO 010756Z 30006KT 10SM CLR 07/00 A3019 RMK AO2 SLP222 T00720000 401560022
KSFO 010656Z 00000KT 10SM CLR 08/01 A3019 RMK AO2 SLP222 T00830006
KSFO 010556Z 29005KT 10SM FEW200 09/05 A3019 RMK AO2 SLP223 T00890050 10156 20089 53008
KSFO 010456Z 29007KT 10SM FEW200 09/04 A3018 RMK AO2 SLP220 T00940039
KSFO 010356Z 29009KT 10SM FEW200 10/03 A3017 RMK AO2 SLP217 T01000028
KSFO 010256Z 28011KT 10SM FEW200 11/01 A3017 RMK AO2 SLP215 T01060006 53010
KSFO 010156Z 29010KT 10SM FEW200 12/M04 A3016 RMK AO2 SLP212 T01171044
KSFO 010056Z 29011KT 10SM FEW200 13/M04 A3015 RMK AO2 SLP208 T01331039
KSFO 312356Z 00000KT 10SM FEW200 15/M07 A3014 RMK AO2 SLP205 T01501072 10156 20106 56015
KSFO 312256Z 00000KT 10SM FEW200 15/M03 A3015 RMK AO2 SLP209 T01501033

KSFO 012049Z 0121/0224 02005KT P6SM BKN200
  FM020500 16007KT P6SM SCT100
  FM021600 VRB04KT P6SM BKN150


KHAF 012135Z AUTO VRB04KT 9SM CLR 13/03 A3018 RMK AO2
KHAF 012115Z AUTO 00000KT 9SM CLR 12/03 A3019 RMK AO2
KHAF 012055Z AUTO 22005KT 9SM CLR 12/01 A3019 RMK AO2
KHAF 012035Z AUTO 24006KT 9SM CLR 12/01 A3020 RMK AO2
KHAF 012015Z AUTO 22004KT 9SM CLR 12/01 A3020 RMK AO2
KHAF 011955Z AUTO 27006KT 9SM CLR 12/01 A3021 RMK AO2 P0002
KHAF 011935Z AUTO 29005KT 10SM CLR 12/01 A3021 RMK AO2 P0002
KHAF 011915Z AUTO 28006KT 9SM CLR 12/M00 A3021 RMK AO2 P0002
KHAF 011855Z AUTO 30006KT 9SM CLR A3021 RMK AO2 P0002
KHAF 011835Z AUTO 32007KT 5SM HZ CLR 11/02 A3021 RMK AO2
KHAF 011815Z AUTO 31007KT 8SM CLR 12/02 A3021 RMK AO2
KHAF 011755Z AUTO 33006KT 6SM HZ CLR 11/03 A3020 RMK AO2
KHAF 011735Z AUTO 32005KT 3SM HZ CLR 11/03 A3020 RMK AO2
KHAF 011715Z AUTO 00000KT 7SM CLR 10/02 A3020 RMK AO2
KHAF 011655Z AUTO 00000KT 6SM HZ CLR 07/01 A3020 RMK AO2
KHAF 011635Z AUTO 00000KT 9SM CLR 05/M01 A3020 RMK AO2
KHAF 011615Z AUTO 00000KT 9SM CLR 03/M02 A3019 RMK AO2
KHAF 011555Z AUTO 00000KT 9SM CLR 02/M03 A3019 RMK AO2
KHAF 011535Z AUTO 00000KT 9SM CLR 02/M03 A3018 RMK AO2
KHAF 011515Z AUTO 00000KT 9SM CLR 02/M03 A3018 RMK AO2
KHAF 011455Z AUTO 00000KT 10SM CLR 01/M03 A3018 RMK AO2
KHAF 011435Z AUTO 00000KT 10SM CLR 02/M05 A3018 RMK AO2
KHAF 011415Z AUTO 00000KT 10SM CLR 01/M05 A3017 RMK AO2
KHAF 011355Z AUTO 00000KT 10SM CLR 00/M04 A3017 RMK AO2
KHAF 011335Z AUTO 00000KT 10SM CLR 01/M05 A3017 RMK AO2
KHAF 011315Z AUTO 02004KT 10SM FEW038 02/M04 A3017 RMK AO2
KHAF 011255Z AUTO 00000KT 10SM FEW039 01/M04 A3016 RMK AO2
KHAF 011235Z AUTO 04003KT 9SM SCT039 02/M03 A3016 RMK AO2
KHAF 011215Z AUTO 00000KT 10SM FEW004 BKN039 01/M04 A3016 RMK AO2
KHAF 011155Z AUTO 00000KT 10SM BKN040 01/M04 A3017 RMK AO2
KHAF 011135Z AUTO 05003KT 10SM BKN041 02/M04 A3017 RMK AO2
KHAF 011115Z AUTO 03004KT 9SM FEW003 BKN041 02/M04 A3017 RMK AO2
KHAF 011055Z AUTO 00000KT 10SM SCT003 BKN041 01/M04 A3018 RMK AO2
KHAF 011035Z AUTO 00000KT 10SM FEW044 02/M05 A3018 RMK AO2
KHAF 011015Z AUTO 00000KT 10SM CLR 01/M03 A3018 RMK AO2
KHAF 010955Z AUTO 00000KT 10SM CLR 01/M03 A3017 RMK AO2
KHAF 010935Z AUTO 00000KT 10SM CLR 02/M02 A3017 RMK AO2
KHAF 010915Z AUTO 06004KT 10SM CLR 03/M03 A3017 RMK AO2
KHAF 010855Z AUTO 00000KT 10SM CLR 03/M03 A3017 RMK AO2
KHAF 010835Z AUTO 00000KT 10SM CLR 02/M02 A3018 RMK AO2
KHAF 010815Z AUTO 00000KT 10SM CLR 02/M03 A3018 RMK AO2
KHAF 010755Z AUTO 00000KT 10SM CLR 03/M02 A3018 RMK AO2
KHAF 010735Z AUTO 00000KT 9SM CLR 02/M02 A3019 RMK AO2
KHAF 010715Z AUTO 00000KT 10SM CLR 02/M02 A3019 RMK AO2
KHAF 010655Z AUTO 00000KT 10SM CLR 03/M02 A3019 RMK AO2
KHAF 010635Z AUTO 00000KT 10SM CLR 03/M01 A3018 RMK AO2
KHAF 010615Z AUTO 00000KT 10SM CLR 02/M02 A3019 RMK AO2
KHAF 010555Z AUTO 03004KT 10SM CLR 04/M02 A3019 RMK AO2
KHAF 010535Z AUTO 00000KT 10SM CLR 04/M02 A3018 RMK AO2
KHAF 010515Z AUTO 06004KT 10SM CLR 05/M02 A3018 RMK AO2
KHAF 010455Z AUTO 06003KT 10SM FEW003 05/M02 A3018 RMK AO2
KHAF 010435Z AUTO VRB05KT 9SM CLR 06/M01 A3018 RMK AO2
KHAF 010415Z AUTO 35003KT 9SM CLR 04/M03 A3018 RMK AO2
KHAF 010355Z AUTO 05003KT 10SM CLR 05/M03 A3018 RMK AO2
KHAF 010335Z AUTO 00000KT 10SM CLR 06/M04 A3017 RMK AO2
KHAF 010315Z AUTO 05003KT 9SM CLR 09/M06 A3017 RMK AO2
KHAF 010255Z AUTO 02004KT 10SM CLR 09/M05 A3017 RMK AO2
KHAF 010235Z AUTO 02005KT 10SM CLR 08/M05 A3017 RMK AO2
KHAF 010215Z AUTO 02008KT 10SM CLR 09/M04 A3016 RMK AO2
KHAF 010155Z AUTO 01010KT 10SM CLR 09/M02 A3016 RMK AO2
KHAF 010135Z AUTO 02012KT 9SM CLR 10/M00 A3016 RMK AO2
KHAF 010115Z AUTO 35011KT 8SM CLR 11/01 A3015 RMK AO2
KHAF 010055Z AUTO 35011KT 9SM CLR 11/02 A3015 RMK AO2
KHAF 010035Z AUTO 35011G19KT 9SM CLR 12/02 A3014 RMK AO2
KHAF 010015Z AUTO 34010KT 8SM CLR 12/01 A3014 RMK AO2
KHAF 312355Z AUTO 33012KT 8SM CLR 12/01 A3013 RMK AO2
KHAF 312335Z AUTO 31011KT 8SM CLR 13/00 A3013 RMK AO2
KHAF 312315Z AUTO 31012KT 8SM CLR 13/01 A3013 RMK AO2
KHAF 312255Z AUTO 33013KT 9SM CLR 15/M02 A3014 RMK AO2
KHAF 312235Z AUTO 00000KT 9SM CLR 15/M05 A3014 RMK AO2
KHAF 312215Z AUTO 23007KT 9SM CLR 15/M06 A3014 RMK AO2
No TAF found for KHAF